Archival Weather

Republic

Farmingdale, New York (KFRG)

Report from: Sunday, January 28, 2024 1:39 AM EST
Current time: Monday, June 17, 2024 2:14 AM EDT

Current weather – Weather history – Daily summaries
Weather forecast

Temperature5.0°C (41.0°F)
Wind chill3.3°C (38.0°F)
Dew point2.2°C (36.0°F)
Winds 4 kts (2.1 m/s, 4.6 mph) East-Southeast (110°)
Visibility10 mi. (16.1 km)
Clouds Scattered clouds 2,600 ft. (792 m)
Ceiling: Broken clouds 7,000 ft. (2,134 m)
Overcast 8,500 ft. (2,591 m)
Altimeter30.13 in.Hg (1020 mB)
Relative humidity82 %
Density altitude-1,342 ft. (-409 m)
Remarks Fully automated report
Automated weather observing station without precipitation discriminator
Flight conditions Visual Meteorological Conditions
Raw dataKFRG 280639Z AUTO 11004KT 10SM SCT026 BKN070 OVC085 05/02 A3013 RMK AO1 T00500022
An error has occurred. This application may no longer respond until reloaded. Reload 🗙